sensor_id;sensor_type;location;lat;lon;timestamp;pressure;altitude;pressure_sealevel;temperature
69420;BMP280;71621;52.030;113.516;2023-07-29T00:01:56;92956.09;;;26.67
69420;BMP280;71621;52.030;113.516;2023-07-29T00:05:00;92968.66;;;26.87
69420;BMP280;71621;52.030;113.516;2023-07-29T00:08:04;92957.72;;;26.49
69420;BMP280;71621;52.030;113.516;2023-07-29T00:11:07;92971.88;;;26.54
69420;BMP280;71621;52.030;113.516;2023-07-29T00:14:11;92986.13;;;26.56
69420;BMP280;71621;52.030;113.516;2023-07-29T00:17:14;92967.34;;;26.74
69420;BMP280;71621;52.030;113.516;2023-07-29T00:53:57;92993.91;;;26.39
69420;BMP280;71621;52.030;113.516;2023-07-29T00:57:01;92987.72;;;26.13
69420;BMP280;71621;52.030;113.516;2023-07-29T01:00:05;92996.81;;;25.83
69420;BMP280;71621;52.030;113.516;2023-07-29T01:03:10;92997.22;;;25.47
69420;BMP280;71621;52.030;113.516;2023-07-29T01:06:19;92990.53;;;25.44
69420;BMP280;71621;52.030;113.516;2023-07-29T01:09:55;92989.69;;;25.48
69420;BMP280;71621;52.030;113.516;2023-07-29T01:13:17;92986.13;;;25.22
69420;BMP280;71621;52.030;113.516;2023-07-29T01:16:41;92978.13;;;25.03
69420;BMP280;71621;52.030;113.516;2023-07-29T01:23:02;92989.75;;;25.04
69420;BMP280;71621;52.030;113.516;2023-07-29T01:26:05;92990.97;;;25.07
69420;BMP280;71621;52.030;113.516;2023-07-29T01:29:09;92994.31;;;25.22
69420;BMP280;71621;52.030;113.516;2023-07-29T01:32:19;93007.75;;;25.28
69420;BMP280;71621;52.030;113.516;2023-07-29T01:35:35;93006.59;;;25.38
69420;BMP280;71621;52.030;113.516;2023-07-29T01:38:41;93003.19;;;25.22
69420;BMP280;71621;52.030;113.516;2023-07-29T01:41:45;93002.84;;;25.16
69420;BMP280;71621;52.030;113.516;2023-07-29T01:44:49;93002.84;;;25.01
69420;BMP280;71621;52.030;113.516;2023-07-29T01:47:53;92999.84;;;24.78
69420;BMP280;71621;52.030;113.516;2023-07-29T01:50:56;92998.03;;;24.58
69420;BMP280;71621;52.030;113.516;2023-07-29T01:54:00;93004.13;;;24.43
69420;BMP280;71621;52.030;113.516;2023-07-29T01:57:04;92995.84;;;24.60
69420;BMP280;71621;52.030;113.516;2023-07-29T02:00:08;93000.78;;;24.26
69420;BMP280;71621;52.030;113.516;2023-07-29T02:03:20;93007.56;;;24.27
69420;BMP280;71621;52.030;113.516;2023-07-29T02:06:23;93005.00;;;24.55
69420;BMP280;71621;52.030;113.516;2023-07-29T02:09:27;93003.03;;;24.82
69420;BMP280;71621;52.030;113.516;2023-07-29T02:12:30;93006.22;;;25.02
69420;BMP280;71621;52.030;113.516;2023-07-29T02:15:35;93005.59;;;25.16
69420;BMP280;71621;52.030;113.516;2023-07-29T02:18:39;92995.88;;;25.04
69420;BMP280;71621;52.030;113.516;2023-07-29T02:21:42;92997.41;;;24.86
69420;BMP280;71621;52.030;113.516;2023-07-29T02:24:46;92991.44;;;24.82
69420;BMP280;71621;52.030;113.516;2023-07-29T02:27:50;93001.50;;;25.29
69420;BMP280;71621;52.030;113.516;2023-07-29T02:31:29;93007.66;;;25.85
69420;BMP280;71621;52.030;113.516;2023-07-29T02:34:32;92998.78;;;26.11
69420;BMP280;71621;52.030;113.516;2023-07-29T02:37:37;93004.50;;;26.20
69420;BMP280;71621;52.030;113.516;2023-07-29T02:40:40;92982.16;;;26.28
69420;BMP280;71621;52.030;113.516;2023-07-29T02:43:48;93000.91;;;26.49
69420;BMP280;71621;52.030;113.516;2023-07-29T02:46:52;93003.63;;;26.49
69420;BMP280;71621;52.030;113.516;2023-07-29T02:49:59;93000.03;;;26.65
69420;BMP280;71621;52.030;113.516;2023-07-29T02:53:02;92992.03;;;26.61
69420;BMP280;71621;52.030;113.516;2023-07-29T02:56:06;92996.19;;;26.47
69420;BMP280;71621;52.030;113.516;2023-07-29T02:59:12;92991.91;;;26.38
69420;BMP280;71621;52.030;113.516;2023-07-29T03:02:15;92994.34;;;26.56
69420;BMP280;71621;52.030;113.516;2023-07-29T03:05:19;92993.25;;;26.64
69420;BMP280;71621;52.030;113.516;2023-07-29T03:08:23;92994.16;;;26.60
69420;BMP280;71621;52.030;113.516;2023-07-29T03:11:27;92993.13;;;26.41
69420;BMP280;71621;52.030;113.516;2023-07-29T03:14:30;92990.38;;;26.28
69420;BMP280;71621;52.030;113.516;2023-07-29T03:17:34;92988.78;;;26.06
69420;BMP280;71621;52.030;113.516;2023-07-29T03:20:38;92980.03;;;26.16
69420;BMP280;71621;52.030;113.516;2023-07-29T03:23:41;92972.06;;;26.25
69420;BMP280;71621;52.030;113.516;2023-07-29T03:26:45;92976.53;;;26.17
69420;BMP280;71621;52.030;113.516;2023-07-29T03:29:49;92978.44;;;26.34
69420;BMP280;71621;52.030;113.516;2023-07-29T03:32:53;92977.91;;;26.44
69420;BMP280;71621;52.030;113.516;2023-07-29T03:35:56;92982.59;;;26.33
69420;BMP280;71621;52.030;113.516;2023-07-29T03:39:00;92972.94;;;26.08
69420;BMP280;71621;52.030;113.516;2023-07-29T03:42:06;92977.06;;;26.07
69420;BMP280;71621;52.030;113.516;2023-07-29T03:45:10;92976.22;;;26.11
69420;BMP280;71621;52.030;113.516;2023-07-29T03:48:14;92971.28;;;26.13
69420;BMP280;71621;52.030;113.516;2023-07-29T03:51:18;92964.81;;;26.32
69420;BMP280;71621;52.030;113.516;2023-07-29T03:54:22;92968.75;;;26.09
69420;BMP280;71621;52.030;113.516;2023-07-29T03:57:25;92973.44;;;25.98
69420;BMP280;71621;52.030;113.516;2023-07-29T04:00:29;92964.66;;;25.96
69420;BMP280;71621;52.030;113.516;2023-07-29T04:03:33;92954.81;;;25.88
69420;BMP280;71621;52.030;113.516;2023-07-29T04:06:38;92956.31;;;25.85
69420;BMP280;71621;52.030;113.516;2023-07-29T04:09:41;92956.53;;;25.94
69420;BMP280;71621;52.030;113.516;2023-07-29T04:12:47;92957.69;;;26.11
69420;BMP280;71621;52.030;113.516;2023-07-29T04:15:50;92952.44;;;26.33
69420;BMP280;71621;52.030;113.516;2023-07-29T04:18:54;92959.25;;;26.34
69420;BMP280;71621;52.030;113.516;2023-07-29T04:21:57;92949.38;;;26.39
69420;BMP280;71621;52.030;113.516;2023-07-29T04:25:01;92947.84;;;26.42
69420;BMP280;71621;52.030;113.516;2023-07-29T04:28:04;92944.44;;;26.29
69420;BMP280;71621;52.030;113.516;2023-07-29T04:31:08;92934.69;;;26.32
69420;BMP280;71621;52.030;113.516;2023-07-29T04:34:12;92941.06;;;26.41
69420;BMP280;71621;52.030;113.516;2023-07-29T04:37:16;92946.56;;;26.41
69420;BMP280;71621;52.030;113.516;2023-07-29T04:40:19;92939.50;;;26.18
69420;BMP280;71621;52.030;113.516;2023-07-29T04:43:27;92938.09;;;26.19
69420;BMP280;71621;52.030;113.516;2023-07-29T04:46:30;92930.97;;;26.25
69420;BMP280;71621;52.030;113.516;2023-07-29T04:49:34;92938.44;;;26.39
69420;BMP280;71621;52.030;113.516;2023-07-29T04:52:38;92930.88;;;26.52
69420;BMP280;71621;52.030;113.516;2023-07-29T04:55:42;92930.19;;;26.51
69420;BMP280;71621;52.030;113.516;2023-07-29T04:58:46;92933.38;;;26.56
69420;BMP280;71621;52.030;113.516;2023-07-29T05:01:50;92937.88;;;26.61
69420;BMP280;71621;52.030;113.516;2023-07-29T05:04:56;92929.66;;;26.61
69420;BMP280;71621;52.030;113.516;2023-07-29T05:08:00;92935.34;;;26.57
69420;BMP280;71621;52.030;113.516;2023-07-29T05:11:03;92930.31;;;26.62
69420;BMP280;71621;52.030;113.516;2023-07-29T05:14:07;92931.84;;;26.72
69420;BMP280;71621;52.030;113.516;2023-07-29T05:17:13;92926.47;;;26.82
69420;BMP280;71621;52.030;113.516;2023-07-29T05:20:17;92929.41;;;26.78
69420;BMP280;71621;52.030;113.516;2023-07-29T05:23:20;92934.03;;;26.82
69420;BMP280;71621;52.030;113.516;2023-07-29T05:26:24;92934.00;;;26.94
69420;BMP280;71621;52.030;113.516;2023-07-29T05:29:27;92927.09;;;26.95
69420;BMP280;71621;52.030;113.516;2023-07-29T05:32:31;92925.63;;;26.96
69420;BMP280;71621;52.030;113.516;2023-07-29T05:35:35;92920.06;;;26.98
69420;BMP280;71621;52.030;113.516;2023-07-29T05:38:39;92927.94;;;27.04
69420;BMP280;71621;52.030;113.516;2023-07-29T05:41:42;92929.00;;;27.09
69420;BMP280;71621;52.030;113.516;2023-07-29T05:44:46;92916.50;;;27.13
69420;BMP280;71621;52.030;113.516;2023-07-29T05:47:49;92912.09;;;27.18
69420;BMP280;71621;52.030;113.516;2023-07-29T05:50:54;92923.25;;;27.26
69420;BMP280;71621;52.030;113.516;2023-07-29T05:53:57;92911.25;;;27.32
69420;BMP280;71621;52.030;113.516;2023-07-29T05:57:01;92910.25;;;27.37
69420;BMP280;71621;52.030;113.516;2023-07-29T06:00:05;92910.25;;;27.37
69420;BMP280;71621;52.030;113.516;2023-07-29T06:03:14;92910.91;;;27.38
69420;BMP280;71621;52.030;113.516;2023-07-29T06:06:17;92901.03;;;27.43
69420;BMP280;71621;52.030;113.516;2023-07-29T06:09:22;92899.47;;;27.46
69420;BMP280;71621;52.030;113.516;2023-07-29T06:12:26;92896.72;;;27.46
69420;BMP280;71621;52.030;113.516;2023-07-29T06:15:29;92898.69;;;27.47
69420;BMP280;71621;52.030;113.516;2023-07-29T06:18:33;92890.06;;;27.43
69420;BMP280;71621;52.030;113.516;2023-07-29T06:21:37;92888.72;;;27.42
69420;BMP280;71621;52.030;113.516;2023-07-29T06:24:40;92890.81;;;27.41
69420;BMP280;71621;52.030;113.516;2023-07-29T06:27:44;92887.84;;;27.45
69420;BMP280;71621;52.030;113.516;2023-07-29T06:30:48;92886.75;;;27.40
69420;BMP280;71621;52.030;113.516;2023-07-29T06:33:52;92890.81;;;27.41
69420;BMP280;71621;52.030;113.516;2023-07-29T06:36:55;92876.34;;;27.43
69420;BMP280;71621;52.030;113.516;2023-07-29T06:39:59;92875.44;;;27.46
69420;BMP280;71621;52.030;113.516;2023-07-29T06:43:02;92877.47;;;27.69
69420;BMP280;71621;52.030;113.516;2023-07-29T06:46:06;92863.66;;;27.82
69420;BMP280;71621;52.030;113.516;2023-07-29T06:49:09;92874.59;;;27.94
69420;BMP280;71621;52.030;113.516;2023-07-29T06:52:13;92875.47;;;27.91
69420;BMP280;71621;52.030;113.516;2023-07-29T06:55:17;92885.69;;;27.92
69420;BMP280;71621;52.030;113.516;2023-07-29T06:58:20;92866.94;;;27.74
69420;BMP280;71621;52.030;113.516;2023-07-29T07:01:24;92879.09;;;27.77
69420;BMP280;71621;52.030;113.516;2023-07-29T07:04:27;92878.97;;;27.79
69420;BMP280;71621;52.030;113.516;2023-07-29T07:07:31;92877.41;;;27.82
69420;BMP280;71621;52.030;113.516;2023-07-29T07:10:34;92863.81;;;27.90
69420;BMP280;71621;52.030;113.516;2023-07-29T07:13:38;92869.97;;;27.91
69420;BMP280;71621;52.030;113.516;2023-07-29T07:16:41;92871.50;;;27.77
69420;BMP280;71621;52.030;113.516;2023-07-29T07:19:45;92879.63;;;27.79
69420;BMP280;71621;52.030;113.516;2023-07-29T07:22:49;92878.78;;;27.70
69420;BMP280;71621;52.030;113.516;2023-07-29T07:25:53;92876.56;;;27.73
69420;BMP280;71621;52.030;113.516;2023-07-29T07:28:56;92878.31;;;27.78
69420;BMP280;71621;52.030;113.516;2023-07-29T07:32:00;92872.56;;;27.82
69420;BMP280;71621;52.030;113.516;2023-07-29T07:35:04;92870.34;;;27.85
69420;BMP280;71621;52.030;113.516;2023-07-29T07:38:08;92881.00;;;28.02
69420;BMP280;71621;52.030;113.516;2023-07-29T07:41:12;92863.50;;;28.07
69420;BMP280;71621;52.030;113.516;2023-07-29T07:44:16;92858.28;;;28.14
69420;BMP280;71621;52.030;113.516;2023-07-29T07:47:20;92864.56;;;28.23
69420;BMP280;71621;52.030;113.516;2023-07-29T07:50:24;92861.44;;;28.39
69420;BMP280;71621;52.030;113.516;2023-07-29T07:53:28;92859.66;;;28.36
69420;BMP280;71621;52.030;113.516;2023-07-29T07:56:32;92852.69;;;28.26
69420;BMP280;71621;52.030;113.516;2023-07-29T07:59:35;92844.16;;;28.20
69420;BMP280;71621;52.030;113.516;2023-07-29T08:02:39;92840.75;;;28.19
69420;BMP280;71621;52.030;113.516;2023-07-29T08:05:42;92840.25;;;28.38
69420;BMP280;71621;52.030;113.516;2023-07-29T08:08:46;92835.13;;;28.42
69420;BMP280;71621;52.030;113.516;2023-07-29T08:11:50;92842.50;;;28.57
69420;BMP280;71621;52.030;113.516;2023-07-29T08:14:54;92842.75;;;28.53
69420;BMP280;71621;52.030;113.516;2023-07-29T08:17:57;92840.00;;;28.63
69420;BMP280;71621;52.030;113.516;2023-07-29T08:21:01;92841.44;;;28.62
69420;BMP280;71621;52.030;113.516;2023-07-29T08:24:07;92838.03;;;28.62
69420;BMP280;71621;52.030;113.516;2023-07-29T08:27:11;92843.25;;;28.66
69420;BMP280;71621;52.030;113.516;2023-07-29T08:30:14;92836.59;;;28.73
69420;BMP280;71621;52.030;113.516;2023-07-29T08:33:19;92826.38;;;28.72
69420;BMP280;71621;52.030;113.516;2023-07-29T08:36:22;92831.19;;;28.82
69420;BMP280;71621;52.030;113.516;2023-07-29T08:39:26;92833.81;;;28.95
69420;BMP280;71621;52.030;113.516;2023-07-29T08:42:31;92828.94;;;29.06
69420;BMP280;71621;52.030;113.516;2023-07-29T08:45:36;92828.69;;;29.10
69420;BMP280;71621;52.030;113.516;2023-07-29T08:48:43;92822.38;;;29.22
69420;BMP280;71621;52.030;113.516;2023-07-29T08:51:47;92824.00;;;29.38
69420;BMP280;71621;52.030;113.516;2023-07-29T08:54:54;92826.94;;;29.55
69420;BMP280;71621;52.030;113.516;2023-07-29T08:57:59;92824.09;;;29.47
69420;BMP280;71621;52.030;113.516;2023-07-29T09:01:02;92827.94;;;29.41
69420;BMP280;71621;52.030;113.516;2023-07-29T09:04:06;92830.06;;;29.30
69420;BMP280;71621;52.030;113.516;2023-07-29T09:07:10;92828.78;;;29.18
69420;BMP280;71621;52.030;113.516;2023-07-29T09:10:13;92835.63;;;29.09
69420;BMP280;71621;52.030;113.516;2023-07-29T09:13:17;92821.09;;;29.10
69420;BMP280;71621;52.030;113.516;2023-07-29T09:16:21;92830.22;;;29.17
69420;BMP280;71621;52.030;113.516;2023-07-29T09:19:25;92824.31;;;29.23
69420;BMP280;71621;52.030;113.516;2023-07-29T09:22:30;92832.06;;;29.21
69420;BMP280;71621;52.030;113.516;2023-07-29T09:25:34;92830.75;;;29.20
69420;BMP280;71621;52.030;113.516;2023-07-29T09:28:39;92828.53;;;29.22
69420;BMP280;71621;52.030;113.516;2023-07-29T09:31:43;92825.91;;;29.20
69420;BMP280;71621;52.030;113.516;2023-07-29T09:34:47;92826.00;;;29.29
69420;BMP280;71621;52.030;113.516;2023-07-29T09:37:51;92825.34;;;29.28
69420;BMP280;71621;52.030;113.516;2023-07-29T09:40:56;92824.28;;;29.34
69420;BMP280;71621;52.030;113.516;2023-07-29T09:44:03;92820.22;;;29.33
69420;BMP280;71621;52.030;113.516;2023-07-29T09:47:07;92823.13;;;29.31
69420;BMP280;71621;52.030;113.516;2023-07-29T09:50:11;92828.34;;;29.35
69420;BMP280;71621;52.030;113.516;2023-07-29T09:53:14;92828.09;;;29.28
69420;BMP280;71621;52.030;113.516;2023-07-29T09:56:26;92826.00;;;29.29
69420;BMP280;71621;52.030;113.516;2023-07-29T09:59:34;92828.13;;;29.18
69420;BMP280;71621;52.030;113.516;2023-07-29T10:02:42;92831.56;;;29.08
69420;BMP280;71621;52.030;113.516;2023-07-29T10:05:46;92832.88;;;29.09
69420;BMP280;71621;52.030;113.516;2023-07-29T10:08:51;92826.03;;;29.18
69420;BMP280;71621;52.030;113.516;2023-07-29T10:11:55;92833.72;;;29.26
69420;BMP280;71621;52.030;113.516;2023-07-29T10:15:02;92833.38;;;29.22
69420;BMP280;71621;52.030;113.516;2023-07-29T10:18:07;92826.16;;;29.16
69420;BMP280;71621;52.030;113.516;2023-07-29T10:21:11;92833.78;;;29.16
69420;BMP280;71621;52.030;113.516;2023-07-29T10:24:19;92835.22;;;29.15
69420;BMP280;71621;52.030;113.516;2023-07-29T10:27:25;92834.69;;;29.12
69420;BMP280;71621;52.030;113.516;2023-07-29T10:30:30;92835.25;;;29.04
69420;BMP280;71621;52.030;113.516;2023-07-29T10:33:34;92836.97;;;28.99
69420;BMP280;71621;52.030;113.516;2023-07-29T10:36:39;92838.66;;;28.94
69420;BMP280;71621;52.030;113.516;2023-07-29T10:39:53;92831.72;;;28.95
69420;BMP280;71621;52.030;113.516;2023-07-29T10:43:09;92832.66;;;28.92
69420;BMP280;71621;52.030;113.516;2023-07-29T10:46:20;92817.59;;;28.80
69420;BMP280;71621;52.030;113.516;2023-07-29T10:49:24;92830.31;;;28.75
69420;BMP280;71621;52.030;113.516;2023-07-29T10:55:35;92832.38;;;28.64
69420;BMP280;71621;52.030;113.516;2023-07-29T10:58:44;92830.69;;;28.58
69420;BMP280;71621;52.030;113.516;2023-07-29T11:01:56;92840.41;;;28.57
69420;BMP280;71621;52.030;113.516;2023-07-29T11:05:06;92831.22;;;28.50
69420;BMP280;71621;52.030;113.516;2023-07-29T11:08:23;92838.97;;;28.48
69420;BMP280;71621;52.030;113.516;2023-07-29T11:11:29;92832.00;;;28.38
69420;BMP280;71621;52.030;113.516;2023-07-29T11:14:36;92833.84;;;28.41
69420;BMP280;71621;52.030;113.516;2023-07-29T11:18:00;92842.75;;;28.42
69420;BMP280;71621;52.030;113.516;2023-07-29T11:21:04;92845.34;;;28.23
69420;BMP280;71621;52.030;113.516;2023-07-29T11:24:09;92839.03;;;28.14
69420;BMP280;71621;52.030;113.516;2023-07-29T11:27:12;92843.06;;;28.04
69420;BMP280;71621;52.030;113.516;2023-07-29T11:30:16;92852.34;;;27.98
69420;BMP280;71621;52.030;113.516;2023-07-29T11:33:21;92847.63;;;27.97
69420;BMP280;71621;52.030;113.516;2023-07-29T11:36:25;92854.28;;;27.89
69420;BMP280;71621;52.030;113.516;2023-07-29T11:39:29;92852.16;;;27.79
69420;BMP280;71621;52.030;113.516;2023-07-29T11:42:35;92862.19;;;27.72
69420;BMP280;71621;52.030;113.516;2023-07-29T11:45:40;92865.31;;;27.66
69420;BMP280;71621;52.030;113.516;2023-07-29T11:48:56;92860.84;;;27.61
69420;BMP280;71621;52.030;113.516;2023-07-29T11:52:00;92859.59;;;27.47
69420;BMP280;71621;52.030;113.516;2023-07-29T11:55:04;92857.56;;;27.35
69420;BMP280;71621;52.030;113.516;2023-07-29T11:58:09;92857.53;;;27.24
69420;BMP280;71621;52.030;113.516;2023-07-29T12:01:13;92857.94;;;27.05
69420;BMP280;71621;52.030;113.516;2023-07-29T12:04:17;92861.91;;;26.96
69420;BMP280;71621;52.030;113.516;2023-07-29T12:07:20;92867.31;;;26.85
69420;BMP280;71621;52.030;113.516;2023-07-29T12:10:25;92867.75;;;26.77
69420;BMP280;71621;52.030;113.516;2023-07-29T12:13:29;92873.84;;;26.67
69420;BMP280;71621;52.030;113.516;2023-07-29T12:16:40;92875.69;;;26.58
69420;BMP280;71621;52.030;113.516;2023-07-29T12:19:44;92865.88;;;26.38
69420;BMP280;71621;52.030;113.516;2023-07-29T12:22:59;92868.94;;;26.32
69420;BMP280;71621;52.030;113.516;2023-07-29T12:26:04;92881.41;;;26.16
69420;BMP280;71621;52.030;113.516;2023-07-29T12:29:15;92884.28;;;26.14
69420;BMP280;71621;52.030;113.516;2023-07-29T12:32:18;92882.06;;;26.04
69420;BMP280;71621;52.030;113.516;2023-07-29T12:35:22;92883.63;;;25.88
69420;BMP280;71621;52.030;113.516;2023-07-29T12:38:26;92880.28;;;25.73
69420;BMP280;71621;52.030;113.516;2023-07-29T12:41:30;92876.75;;;25.62
69420;BMP280;71621;52.030;113.516;2023-07-29T12:44:35;92881.31;;;25.53
69420;BMP280;71621;52.030;113.516;2023-07-29T12:47:39;92887.13;;;25.47
69420;BMP280;71621;52.030;113.516;2023-07-29T12:50:42;92886.09;;;25.40
69420;BMP280;71621;52.030;113.516;2023-07-29T12:53:46;92884.00;;;25.27
69420;BMP280;71621;52.030;113.516;2023-07-29T12:56:50;92892.78;;;25.15
69420;BMP280;71621;52.030;113.516;2023-07-29T12:59:54;92898.19;;;25.03
69420;BMP280;71621;52.030;113.516;2023-07-29T13:02:58;92902.44;;;25.00
69420;BMP280;71621;52.030;113.516;2023-07-29T13:06:01;92893.94;;;24.91
69420;BMP280;71621;52.030;113.516;2023-07-29T13:09:05;92888.69;;;24.87
69420;BMP280;71621;52.030;113.516;2023-07-29T13:12:08;92885.50;;;24.82
69420;BMP280;71621;52.030;113.516;2023-07-29T13:15:12;92889.94;;;24.75
69420;BMP280;71621;52.030;113.516;2023-07-29T13:18:16;92894.63;;;24.77
69420;BMP280;71621;52.030;113.516;2023-07-29T13:21:20;92891.09;;;24.66
69420;BMP280;71621;52.030;113.516;2023-07-29T13:24:23;92888.53;;;24.47
69420;BMP280;71621;52.030;113.516;2023-07-29T13:27:27;92895.38;;;24.31
69420;BMP280;71621;52.030;113.516;2023-07-29T13:30:31;92880.03;;;24.09
69420;BMP280;71621;52.030;113.516;2023-07-29T13:33:35;92891.22;;;24.03
69420;BMP280;71621;52.030;113.516;2023-07-29T13:36:39;92896.00;;;23.88
69420;BMP280;71621;52.030;113.516;2023-07-29T13:39:42;92895.13;;;23.77
69420;BMP280;71621;52.030;113.516;2023-07-29T13:42:46;92903.16;;;23.64
69420;BMP280;71621;52.030;113.516;2023-07-29T13:45:50;92904.16;;;23.56
69420;BMP280;71621;52.030;113.516;2023-07-29T13:48:53;92908.50;;;23.51
69420;BMP280;71621;52.030;113.516;2023-07-29T13:51:57;92921.47;;;23.51
69420;BMP280;71621;52.030;113.516;2023-07-29T13:55:00;92915.41;;;23.48
69420;BMP280;71621;52.030;113.516;2023-07-29T13:58:04;92927.66;;;23.49
69420;BMP280;71621;52.030;113.516;2023-07-29T14:01:08;92938.81;;;23.60
69420;BMP280;71621;52.030;113.516;2023-07-29T14:04:11;92941.22;;;23.51
69420;BMP280;71621;52.030;113.516;2023-07-29T14:07:15;92943.22;;;23.36
69420;BMP280;71621;52.030;113.516;2023-07-29T14:10:18;92937.09;;;23.19
69420;BMP280;71621;52.030;113.516;2023-07-29T14:13:22;92934.78;;;23.09
69420;BMP280;71621;52.030;113.516;2023-07-29T14:16:25;92941.94;;;23.00
69420;BMP280;71621;52.030;113.516;2023-07-29T14:19:29;92940.44;;;22.86
69420;BMP280;71621;52.030;113.516;2023-07-29T14:22:32;92953.22;;;22.73
69420;BMP280;71621;52.030;113.516;2023-07-29T14:25:36;92951.78;;;22.57
69420;BMP280;71621;52.030;113.516;2023-07-29T14:28:39;92946.34;;;22.38
69420;BMP280;71621;52.030;113.516;2023-07-29T14:31:43;92957.69;;;22.26
69420;BMP280;71621;52.030;113.516;2023-07-29T14:34:46;92963.56;;;22.14
69420;BMP280;71621;52.030;113.516;2023-07-29T14:37:50;92961.78;;;22.07
69420;BMP280;71621;52.030;113.516;2023-07-29T14:40:53;92960.81;;;21.95
69420;BMP280;71621;52.030;113.516;2023-07-29T14:43:59;92965.22;;;21.86
69420;BMP280;71621;52.030;113.516;2023-07-29T14:47:02;92968.50;;;21.89
69420;BMP280;71621;52.030;113.516;2023-07-29T14:50:06;92970.00;;;21.86
69420;BMP280;71621;52.030;113.516;2023-07-29T14:53:10;92956.19;;;21.92
69420;BMP280;71621;52.030;113.516;2023-07-29T14:56:14;92962.34;;;21.90
69420;BMP280;71621;52.030;113.516;2023-07-29T14:59:23;92959.84;;;21.84
69420;BMP280;71621;52.030;113.516;2023-07-29T15:02:27;92961.09;;;21.87
69420;BMP280;71621;52.030;113.516;2023-07-29T15:05:30;92966.53;;;21.87
69420;BMP280;71621;52.030;113.516;2023-07-29T15:08:34;92967.53;;;21.78
69420;BMP280;71621;52.030;113.516;2023-07-29T15:11:38;92968.03;;;21.64
69420;BMP280;71621;52.030;113.516;2023-07-29T15:14:42;92971.84;;;21.52
69420;BMP280;71621;52.030;113.516;2023-07-29T15:17:45;92965.91;;;21.45
69420;BMP280;71621;52.030;113.516;2023-07-29T15:20:49;92974.94;;;21.40
69420;BMP280;71621;52.030;113.516;2023-07-29T15:23:54;92979.03;;;21.39
69420;BMP280;71621;52.030;113.516;2023-07-29T15:26:57;92977.84;;;21.34
69420;BMP280;71621;52.030;113.516;2023-07-29T15:30:01;92980.97;;;21.42
69420;BMP280;71621;52.030;113.516;2023-07-29T15:33:05;92970.03;;;21.44
69420;BMP280;71621;52.030;113.516;2023-07-29T15:36:08;92970.53;;;21.49
69420;BMP280;71621;52.030;113.516;2023-07-29T15:39:12;92974.47;;;21.54
69420;BMP280;71621;52.030;113.516;2023-07-29T15:42:15;92973.84;;;21.51
69420;BMP280;71621;52.030;113.516;2023-07-29T15:45:19;92969.09;;;21.31
69420;BMP280;71621;52.030;113.516;2023-07-29T15:48:26;92972.25;;;21.17
69420;BMP280;71621;52.030;113.516;2023-07-29T15:51:29;92966.78;;;20.96
69420;BMP280;71621;52.030;113.516;2023-07-29T15:54:33;92965.84;;;20.83
69420;BMP280;71621;52.030;113.516;2023-07-29T15:57:37;92963.28;;;20.77
69420;BMP280;71621;52.030;113.516;2023-07-29T16:00:40;92967.59;;;20.70
69420;BMP280;71621;52.030;113.516;2023-07-29T16:03:43;92970.59;;;20.60
69420;BMP280;71621;52.030;113.516;2023-07-29T16:06:47;92966.84;;;20.49
69420;BMP280;71621;52.030;113.516;2023-07-29T16:09:51;92970.97;;;20.46
69420;BMP280;71621;52.030;113.516;2023-07-29T16:12:54;92975.22;;;20.41
69420;BMP280;71621;52.030;113.516;2023-07-29T16:15:58;92983.59;;;20.32
69420;BMP280;71621;52.030;113.516;2023-07-29T16:19:02;92971.56;;;20.25
69420;BMP280;71621;52.030;113.516;2023-07-29T16:22:08;92985.56;;;20.34
69420;BMP280;71621;52.030;113.516;2023-07-29T16:25:12;92985.41;;;20.40
69420;BMP280;71621;52.030;113.516;2023-07-29T16:28:16;92980.66;;;20.41
69420;BMP280;71621;52.030;113.516;2023-07-29T16:31:20;92979.34;;;20.37
69420;BMP280;71621;52.030;113.516;2023-07-29T16:34:23;92982.31;;;20.29
69420;BMP280;71621;52.030;113.516;2023-07-29T16:37:27;92979.59;;;20.29
69420;BMP280;71621;52.030;113.516;2023-07-29T16:40:31;92977.50;;;20.32
69420;BMP280;71621;52.030;113.516;2023-07-29T16:43:35;92972.50;;;20.41
69420;BMP280;71621;52.030;113.516;2023-07-29T16:46:40;92982.28;;;20.54
69420;BMP280;71621;52.030;113.516;2023-07-29T16:49:43;92986.16;;;20.61
69420;BMP280;71621;52.030;113.516;2023-07-29T16:52:47;93002.63;;;20.55
69420;BMP280;71621;52.030;113.516;2023-07-29T16:55:52;93003.63;;;20.44
69420;BMP280;71621;52.030;113.516;2023-07-29T16:58:55;93000.38;;;20.39
69420;BMP280;71621;52.030;113.516;2023-07-29T17:01:59;93004.56;;;20.34
69420;BMP280;71621;52.030;113.516;2023-07-29T17:05:05;93007.78;;;20.16
69420;BMP280;71621;52.030;113.516;2023-07-29T17:08:09;93007.50;;;20.01
69420;BMP280;71621;52.030;113.516;2023-07-29T17:11:13;93007.53;;;19.99
69420;BMP280;71621;52.030;113.516;2023-07-29T17:14:17;93001.19;;;19.82
69420;BMP280;71621;52.030;113.516;2023-07-29T17:17:22;93006.47;;;19.61
69420;BMP280;71621;52.030;113.516;2023-07-29T17:20:25;93011.41;;;19.52
69420;BMP280;71621;52.030;113.516;2023-07-29T17:23:29;93012.19;;;19.49
69420;BMP280;71621;52.030;113.516;2023-07-29T17:26:33;93013.47;;;19.52
69420;BMP280;71621;52.030;113.516;2023-07-29T17:29:38;93014.31;;;19.46
69420;BMP280;71621;52.030;113.516;2023-07-29T17:32:41;93017.28;;;19.34
69420;BMP280;71621;52.030;113.516;2023-07-29T17:35:45;93003.03;;;19.36
69420;BMP280;71621;52.030;113.516;2023-07-29T17:38:49;93000.97;;;19.36
69420;BMP280;71621;52.030;113.516;2023-07-29T17:41:53;92996.31;;;19.33
69420;BMP280;71621;52.030;113.516;2023-07-29T17:44:56;92998.16;;;19.40
69420;BMP280;71621;52.030;113.516;2023-07-29T17:48:00;92994.78;;;19.40
69420;BMP280;71621;52.030;113.516;2023-07-29T17:51:03;92995.78;;;19.26
69420;BMP280;71621;52.030;113.516;2023-07-29T17:54:07;92998.59;;;19.22